sensor_id;sensor_type;location;lat;lon;timestamp;pressure;altitude;pressure_sealevel;temperature;humidity
71194;BME280;58903;47.210;8.618;2023-05-12T00:03:11;93869.16;;;26.83;42.47
71194;BME280;58903;47.210;8.618;2023-05-12T00:12:28;93861.59;;;26.84;42.41
71194;BME280;58903;47.210;8.618;2023-05-12T00:15:11;93857.56;;;26.85;42.69
71194;BME280;58903;47.210;8.618;2023-05-12T00:17:37;93857.38;;;26.83;42.52
71194;BME280;58903;47.210;8.618;2023-05-12T00:20:18;93862.13;;;26.82;42.16
71194;BME280;58903;47.210;8.618;2023-05-12T00:23:23;93864.16;;;26.82;42.61
71194;BME280;58903;47.210;8.618;2023-05-12T00:25:57;93855.66;;;26.80;42.56
71194;BME280;58903;47.210;8.618;2023-05-12T00:31:40;93856.00;;;26.76;43.09
71194;BME280;58903;47.210;8.618;2023-05-12T00:34:41;93844.19;;;26.76;42.76
71194;BME280;58903;47.210;8.618;2023-05-12T00:37:45;93852.47;;;26.76;42.81
71194;BME280;58903;47.210;8.618;2023-05-12T00:40:28;93849.50;;;26.74;42.74
71194;BME280;58903;47.210;8.618;2023-05-12T00:43:15;93848.03;;;26.73;43.31
71194;BME280;58903;47.210;8.618;2023-05-12T00:45:59;93842.72;;;26.75;43.19
71194;BME280;58903;47.210;8.618;2023-05-12T00:48:46;93838.47;;;26.74;42.96
71194;BME280;58903;47.210;8.618;2023-05-12T00:51:24;93844.75;;;26.74;42.54
71194;BME280;58903;47.210;8.618;2023-05-12T00:54:21;93848.03;;;26.73;43.04
71194;BME280;58903;47.210;8.618;2023-05-12T00:56:59;93841.53;;;26.70;42.84
71194;BME280;58903;47.210;8.618;2023-05-12T00:59:25;93845.56;;;26.69;42.94
71194;BME280;58903;47.210;8.618;2023-05-12T01:02:01;93836.53;;;26.69;43.19
71194;BME280;58903;47.210;8.618;2023-05-12T01:05:01;93839.28;;;26.69;43.06
71194;BME280;58903;47.210;8.618;2023-05-12T01:07:37;93835.81;;;26.68;42.88
71194;BME280;58903;47.210;8.618;2023-05-12T01:10:23;93839.28;;;26.69;42.84
71194;BME280;58903;47.210;8.618;2023-05-12T01:13:26;93837.63;;;26.66;43.10
71194;BME280;58903;47.210;8.618;2023-05-12T01:16:06;93836.13;;;26.65;42.62
71194;BME280;58903;47.210;8.618;2023-05-12T01:22:16;93830.19;;;26.61;43.39
71194;BME280;58903;47.210;8.618;2023-05-12T01:25:08;93826.16;;;26.62;43.11
71194;BME280;58903;47.210;8.618;2023-05-12T01:27:52;93827.63;;;26.63;43.55
71194;BME280;58903;47.210;8.618;2023-05-12T01:30:39;93828.91;;;26.62;42.98
71194;BME280;58903;47.210;8.618;2023-05-12T01:33:20;93823.41;;;26.62;42.58
71194;BME280;58903;47.210;8.618;2023-05-12T01:36:06;93825.94;;;26.60;42.90
71194;BME280;58903;47.210;8.618;2023-05-12T01:38:33;93832.94;;;26.61;43.16
71194;BME280;58903;47.210;8.618;2023-05-12T01:41:09;93827.41;;;26.61;42.66
71194;BME280;58903;47.210;8.618;2023-05-12T01:44:01;93831.69;;;26.62;42.84
71194;BME280;58903;47.210;8.618;2023-05-12T01:46:58;93825.00;;;26.57;42.75
71194;BME280;58903;47.210;8.618;2023-05-12T01:52:52;93839.50;;;26.58;43.02
71194;BME280;58903;47.210;8.618;2023-05-12T01:55:20;93835.06;;;26.55;43.50
71194;BME280;58903;47.210;8.618;2023-05-12T01:58:18;93837.06;;;26.54;43.16
71194;BME280;58903;47.210;8.618;2023-05-12T02:00:55;93837.63;;;26.53;42.93
71194;BME280;58903;47.210;8.618;2023-05-12T02:03:21;93832.84;;;26.53;43.38
71194;BME280;58903;47.210;8.618;2023-05-12T02:05:48;93840.88;;;26.51;43.29
71194;BME280;58903;47.210;8.618;2023-05-12T02:08:14;93836.66;;;26.50;43.50
71194;BME280;58903;47.210;8.618;2023-05-12T02:10:41;93840.16;;;26.51;43.00
71194;BME280;58903;47.210;8.618;2023-05-12T02:13:19;93833.91;;;26.50;43.60
71194;BME280;58903;47.210;8.618;2023-05-12T02:15:54;93837.91;;;26.49;43.41
71194;BME280;58903;47.210;8.618;2023-05-12T02:18:22;93834.63;;;26.51;43.11
71194;BME280;58903;47.210;8.618;2023-05-12T02:20:59;93833.16;;;26.50;43.60
71194;BME280;58903;47.210;8.618;2023-05-12T02:23:26;93826.16;;;26.49;43.28
71194;BME280;58903;47.210;8.618;2023-05-12T02:25:52;93833.47;;;26.46;43.07
71194;BME280;58903;47.210;8.618;2023-05-12T02:28:18;93832.94;;;26.48;43.67
71194;BME280;58903;47.210;8.618;2023-05-12T02:30:45;93835.69;;;26.48;43.64
71194;BME280;58903;47.210;8.618;2023-05-12T02:33:15;93829.22;;;26.45;43.62
71194;BME280;58903;47.210;8.618;2023-05-12T02:35:43;93836.44;;;26.48;42.74
71194;BME280;58903;47.210;8.618;2023-05-12T02:38:18;93832.72;;;26.46;43.06
71194;BME280;58903;47.210;8.618;2023-05-12T02:40:57;93830.50;;;26.44;43.51
71194;BME280;58903;47.210;8.618;2023-05-12T02:43:27;93834.72;;;26.45;43.30
71194;BME280;58903;47.210;8.618;2023-05-12T02:45:53;93831.97;;;26.45;42.88
71194;BME280;58903;47.210;8.618;2023-05-12T02:48:19;93833.25;;;26.44;43.10
71194;BME280;58903;47.210;8.618;2023-05-12T02:50:45;93834.53;;;26.43;43.46
71194;BME280;58903;47.210;8.618;2023-05-12T02:53:12;93825.00;;;26.44;43.59
71194;BME280;58903;47.210;8.618;2023-05-12T02:55:39;93827.53;;;26.42;43.82
71194;BME280;58903;47.210;8.618;2023-05-12T02:58:05;93826.03;;;26.41;43.13
71194;BME280;58903;47.210;8.618;2023-05-12T03:00:31;93831.00;;;26.43;43.09
71194;BME280;58903;47.210;8.618;2023-05-12T03:03:06;93829.75;;;26.44;43.55
71194;BME280;58903;47.210;8.618;2023-05-12T03:05:46;93830.81;;;26.41;43.37
71194;BME280;58903;47.210;8.618;2023-05-12T03:08:23;93822.66;;;26.35;43.47
71194;BME280;58903;47.210;8.618;2023-05-12T03:11:00;93826.56;;;26.40;43.65
71194;BME280;58903;47.210;8.618;2023-05-12T03:13:42;93830.09;;;26.40;43.88
71194;BME280;58903;47.210;8.618;2023-05-12T03:16:21;93821.06;;;26.40;42.94
71194;BME280;58903;47.210;8.618;2023-05-12T03:19:01;93820.31;;;26.39;43.73
71194;BME280;58903;47.210;8.618;2023-05-12T03:21:28;93820.09;;;26.37;43.08
71194;BME280;58903;47.210;8.618;2023-05-12T03:24:14;93833.88;;;26.37;43.23
71194;BME280;58903;47.210;8.618;2023-05-12T03:26:42;93824.88;;;26.37;43.79
71194;BME280;58903;47.210;8.618;2023-05-12T03:29:23;93826.38;;;26.38;43.22
71194;BME280;58903;47.210;8.618;2023-05-12T03:31:50;93824.66;;;26.35;43.15
71194;BME280;58903;47.210;8.618;2023-05-12T03:34:31;93811.63;;;26.35;43.12
71194;BME280;58903;47.210;8.618;2023-05-12T03:37:08;93822.66;;;26.35;43.68
71194;BME280;58903;47.210;8.618;2023-05-12T03:39:37;93816.38;;;26.35;43.10
71194;BME280;58903;47.210;8.618;2023-05-12T03:42:04;93813.63;;;26.35;43.79
71194;BME280;58903;47.210;8.618;2023-05-12T03:44:57;93815.53;;;26.40;43.53
71194;BME280;58903;47.210;8.618;2023-05-12T03:47:48;93810.78;;;26.40;43.17
71194;BME280;58903;47.210;8.618;2023-05-12T03:50:15;93801.34;;;26.36;42.88
71194;BME280;58903;47.210;8.618;2023-05-12T03:52:52;93802.59;;;26.35;43.59
71194;BME280;58903;47.210;8.618;2023-05-12T03:55:55;93802.38;;;26.33;43.18
71194;BME280;58903;47.210;8.618;2023-05-12T03:58:31;93803.66;;;26.32;43.83
71194;BME280;58903;47.210;8.618;2023-05-12T04:01:04;93804.41;;;26.32;43.71
71194;BME280;58903;47.210;8.618;2023-05-12T04:03:30;93802.91;;;26.31;43.40
71194;BME280;58903;47.210;8.618;2023-05-12T04:06:32;93805.88;;;26.33;43.10
71194;BME280;58903;47.210;8.618;2023-05-12T04:09:08;93798.38;;;26.34;43.30
71194;BME280;58903;47.210;8.618;2023-05-12T04:11:55;93799.63;;;26.33;43.72
71194;BME280;58903;47.210;8.618;2023-05-12T04:14:30;93800.69;;;26.30;43.06
71194;BME280;58903;47.210;8.618;2023-05-12T04:23:44;93799.75;;;26.27;43.05
71194;BME280;58903;47.210;8.618;2023-05-12T04:26:21;93802.16;;;26.31;43.87
71194;BME280;58903;47.210;8.618;2023-05-12T04:28:48;93815.22;;;26.30;43.42
71194;BME280;58903;47.210;8.618;2023-05-12T04:31:35;93815.97;;;26.31;43.10
71194;BME280;58903;47.210;8.618;2023-05-12T04:34:19;93807.47;;;26.29;42.93
71194;BME280;58903;47.210;8.618;2023-05-12T04:37:05;93820.22;;;26.32;43.36
71194;BME280;58903;47.210;8.618;2023-05-12T04:39:46;93822.72;;;26.30;43.51
71194;BME280;58903;47.210;8.618;2023-05-12T04:42:12;93828.25;;;26.30;43.10
71194;BME280;58903;47.210;8.618;2023-05-12T04:45:08;93828.25;;;26.30;42.86
71194;BME280;58903;47.210;8.618;2023-05-12T04:47:59;93820.50;;;26.28;43.27
71194;BME280;58903;47.210;8.618;2023-05-12T04:53:44;93818.28;;;26.27;43.46
71194;BME280;58903;47.210;8.618;2023-05-12T04:56:14;93823.81;;;26.27;43.75
71194;BME280;58903;47.210;8.618;2023-05-12T04:58:51;93830.78;;;26.28;43.58
71194;BME280;58903;47.210;8.618;2023-05-12T05:01:30;93827.81;;;26.26;43.63
71194;BME280;58903;47.210;8.618;2023-05-12T05:04:25;93833.88;;;26.24;43.62
71194;BME280;58903;47.210;8.618;2023-05-12T05:06:56;93833.88;;;26.24;43.10
71194;BME280;58903;47.210;8.618;2023-05-12T05:09:50;93835.38;;;26.25;43.29
71194;BME280;58903;47.210;8.618;2023-05-12T05:12:31;93835.66;;;26.22;43.39
71194;BME280;58903;47.210;8.618;2023-05-12T05:15:17;93830.91;;;26.22;43.66
71194;BME280;58903;47.210;8.618;2023-05-12T05:18:15;93827.59;;;26.24;43.39
71194;BME280;58903;47.210;8.618;2023-05-12T05:21:10;93832.91;;;26.22;43.41
71194;BME280;58903;47.210;8.618;2023-05-12T05:23:46;93831.44;;;26.21;43.47
71194;BME280;58903;47.210;8.618;2023-05-12T05:26:16;93833.44;;;26.20;43.33
71194;BME280;58903;47.210;8.618;2023-05-12T05:28:42;93840.44;;;26.21;43.49
71194;BME280;58903;47.210;8.618;2023-05-12T05:31:16;93836.19;;;26.20;43.71
71194;BME280;58903;47.210;8.618;2023-05-12T05:34:19;93841.19;;;26.22;43.71
71194;BME280;58903;47.210;8.618;2023-05-12T05:36:45;93836.63;;;26.24;44.56
71194;BME280;58903;47.210;8.618;2023-05-12T05:39:35;93837.06;;;26.28;44.15
71194;BME280;58903;47.210;8.618;2023-05-12T05:42:17;93849.47;;;26.35;43.92
71194;BME280;58903;47.210;8.618;2023-05-12T05:44:44;93841.94;;;26.35;43.34
71194;BME280;58903;47.210;8.618;2023-05-12T05:47:19;93841.13;;;26.40;43.46
71194;BME280;58903;47.210;8.618;2023-05-12T05:49:55;93847.25;;;26.46;43.48
71194;BME280;58903;47.210;8.618;2023-05-12T05:52:27;93842.50;;;26.47;43.49
71194;BME280;58903;47.210;8.618;2023-05-12T05:55:22;93840.38;;;26.53;43.44
71194;BME280;58903;47.210;8.618;2023-05-12T05:58:03;93832.09;;;26.53;43.21
71194;BME280;58903;47.210;8.618;2023-05-12T06:00:31;93842.50;;;26.60;43.33
71194;BME280;58903;47.210;8.618;2023-05-12T06:03:07;93839.75;;;26.60;43.18
71194;BME280;58903;47.210;8.618;2023-05-12T06:06:04;93834.66;;;26.64;43.39
71194;BME280;58903;47.210;8.618;2023-05-12T06:08:30;93836.44;;;26.61;43.09
71194;BME280;58903;47.210;8.618;2023-05-12T06:11:00;93841.84;;;26.67;42.94
71194;BME280;58903;47.210;8.618;2023-05-12T06:13:58;93853.28;;;26.71;42.15
71194;BME280;58903;47.210;8.618;2023-05-12T06:16:48;93846.13;;;26.81;41.95
71194;BME280;58903;47.210;8.618;2023-05-12T06:19:42;93850.88;;;26.94;41.91
71194;BME280;58903;47.210;8.618;2023-05-12T06:22:41;93859.47;;;27.03;41.62
71194;BME280;58903;47.210;8.618;2023-05-12T06:25:23;93843.53;;;27.09;41.76
71194;BME280;58903;47.210;8.618;2023-05-12T06:28:07;93860.06;;;27.22;41.47
71194;BME280;58903;47.210;8.618;2023-05-12T06:30:54;93864.75;;;27.27;41.77
71194;BME280;58903;47.210;8.618;2023-05-12T06:33:57;93860.59;;;27.34;41.58
71194;BME280;58903;47.210;8.618;2023-05-12T06:36:55;93860.69;;;27.41;41.34
71194;BME280;58903;47.210;8.618;2023-05-12T06:39:31;93855.06;;;27.47;40.69
71194;BME280;58903;47.210;8.618;2023-05-12T06:42:06;93858.75;;;27.49;41.37
71194;BME280;58903;47.210;8.618;2023-05-12T06:44:32;93858.44;;;27.53;40.88
71194;BME280;58903;47.210;8.618;2023-05-12T06:47:07;93851.31;;;27.57;40.98
71194;BME280;58903;47.210;8.618;2023-05-12T06:49:34;93852.22;;;27.60;41.03
71194;BME280;58903;47.210;8.618;2023-05-12T06:52:02;93855.22;;;27.62;40.80
71194;BME280;58903;47.210;8.618;2023-05-12T06:54:42;93858.19;;;27.64;39.92
71194;BME280;58903;47.210;8.618;2023-05-12T06:57:32;93854.66;;;27.63;39.38
71194;BME280;58903;47.210;8.618;2023-05-12T06:59:58;93851.91;;;27.63;39.39
71194;BME280;58903;47.210;8.618;2023-05-12T07:02:30;93854.66;;;27.63;39.06
71194;BME280;58903;47.210;8.618;2023-05-12T07:04:56;93859.34;;;27.69;39.18
71194;BME280;58903;47.210;8.618;2023-05-12T07:07:23;93859.00;;;27.72;39.48
71194;BME280;58903;47.210;8.618;2023-05-12T07:09:51;93846.13;;;27.75;39.36
71194;BME280;58903;47.210;8.618;2023-05-12T07:12:19;93849.50;;;27.81;39.07
71194;BME280;58903;47.210;8.618;2023-05-12T07:14:45;93846.94;;;27.83;39.12
71194;BME280;58903;47.210;8.618;2023-05-12T07:17:33;93849.34;;;27.86;39.31
71194;BME280;58903;47.210;8.618;2023-05-12T07:23:43;93854.34;;;27.88;39.25
71194;BME280;58903;47.210;8.618;2023-05-12T07:26:23;93855.09;;;27.88;39.28
71194;BME280;58903;47.210;8.618;2023-05-12T07:29:00;93845.31;;;27.87;39.19
71194;BME280;58903;47.210;8.618;2023-05-12T07:31:25;93847.34;;;27.87;39.40
71194;BME280;58903;47.210;8.618;2023-05-12T07:34:08;93855.44;;;27.85;39.71
71194;BME280;58903;47.210;8.618;2023-05-12T07:36:53;93851.19;;;27.84;39.55
71194;BME280;58903;47.210;8.618;2023-05-12T07:39:29;93848.94;;;27.82;38.93
71194;BME280;58903;47.210;8.618;2023-05-12T07:42:00;93854.47;;;27.82;39.70
71194;BME280;58903;47.210;8.618;2023-05-12T07:44:26;93848.22;;;27.82;39.67
71194;BME280;58903;47.210;8.618;2023-05-12T07:50:12;93843.56;;;27.77;40.01
71194;BME280;58903;47.210;8.618;2023-05-12T07:53:11;93841.00;;;27.79;40.01
71194;BME280;58903;47.210;8.618;2023-05-12T07:55:38;93847.59;;;27.76;39.82
71194;BME280;58903;47.210;8.618;2023-05-12T07:58:24;93838.91;;;27.72;39.57
71194;BME280;58903;47.210;8.618;2023-05-12T08:01:00;93844.44;;;27.72;40.11
71194;BME280;58903;47.210;8.618;2023-05-12T08:03:31;93833.91;;;27.70;39.73
71194;BME280;58903;47.210;8.618;2023-05-12T08:06:06;93836.69;;;27.70;40.11
71194;BME280;58903;47.210;8.618;2023-05-12T08:08:37;93840.72;;;27.69;40.35
71194;BME280;58903;47.210;8.618;2023-05-12T08:11:13;93840.50;;;27.67;40.14
71194;BME280;58903;47.210;8.618;2023-05-12T08:13:45;93839.03;;;27.66;40.04
71194;BME280;58903;47.210;8.618;2023-05-12T08:16:37;93848.59;;;27.65;40.35
71194;BME280;58903;47.210;8.618;2023-05-12T08:19:22;93847.84;;;27.64;39.92
71194;BME280;58903;47.210;8.618;2023-05-12T08:22:19;93840.66;;;27.61;39.65
71194;BME280;58903;47.210;8.618;2023-05-12T08:24:47;93844.69;;;27.60;39.71
71194;BME280;58903;47.210;8.618;2023-05-12T08:27:30;93841.91;;;27.60;39.83
71194;BME280;58903;47.210;8.618;2023-05-12T08:30:09;93843.72;;;27.58;40.18
71194;BME280;58903;47.210;8.618;2023-05-12T08:32:39;93834.53;;;27.55;40.35
71194;BME280;58903;47.210;8.618;2023-05-12T08:35:31;93843.00;;;27.57;40.10
71194;BME280;58903;47.210;8.618;2023-05-12T08:38:24;93843.00;;;27.57;40.00
71194;BME280;58903;47.210;8.618;2023-05-12T08:44:04;93839.69;;;27.59;40.38
71194;BME280;58903;47.210;8.618;2023-05-12T08:46:53;93839.50;;;27.57;40.42
71194;BME280;58903;47.210;8.618;2023-05-12T08:49:59;93833.03;;;27.54;40.19
71194;BME280;58903;47.210;8.618;2023-05-12T08:52:31;93841.84;;;27.53;40.21
71194;BME280;58903;47.210;8.618;2023-05-12T08:55:29;93838.34;;;27.52;40.23
71194;BME280;58903;47.210;8.618;2023-05-12T08:57:57;93839.41;;;27.49;39.77
71194;BME280;58903;47.210;8.618;2023-05-12T09:00:25;93843.66;;;27.50;39.94
71194;BME280;58903;47.210;8.618;2023-05-12T09:03:22;93835.94;;;27.49;39.78
71194;BME280;58903;47.210;8.618;2023-05-12T09:05:59;93837.94;;;27.48;39.78
71194;BME280;58903;47.210;8.618;2023-05-12T09:08:29;93838.25;;;27.45;39.71
71194;BME280;58903;47.210;8.618;2023-05-12T09:10:59;93831.81;;;27.42;40.15
71194;BME280;58903;47.210;8.618;2023-05-12T09:16:18;93834.13;;;27.38;40.13
71194;BME280;58903;47.210;8.618;2023-05-12T09:18:53;93834.66;;;27.37;40.25
71194;BME280;58903;47.210;8.618;2023-05-12T09:21:23;93826.94;;;27.35;40.45
71194;BME280;58903;47.210;8.618;2023-05-12T09:24:00;93833.22;;;27.36;40.79
71194;BME280;58903;47.210;8.618;2023-05-12T09:26:52;93828.91;;;27.35;40.74
71194;BME280;58903;47.210;8.618;2023-05-12T09:29:30;93832.22;;;27.33;40.78
71194;BME280;58903;47.210;8.618;2023-05-12T09:32:13;93827.75;;;27.30;40.74
71194;BME280;58903;47.210;8.618;2023-05-12T09:35:16;93828.31;;;27.29;40.85
71194;BME280;58903;47.210;8.618;2023-05-12T09:37:53;93829.06;;;27.29;40.71
71194;BME280;58903;47.210;8.618;2023-05-12T09:40:52;93829.56;;;27.28;40.84
71194;BME280;58903;47.210;8.618;2023-05-12T09:43:18;93830.88;;;27.27;40.67
71194;BME280;58903;47.210;8.618;2023-05-12T09:46:17;93829.38;;;27.26;41.24
71194;BME280;58903;47.210;8.618;2023-05-12T09:48:54;93831.59;;;27.27;41.20
71194;BME280;58903;47.210;8.618;2023-05-12T09:51:26;93832.34;;;27.28;41.31
71194;BME280;58903;47.210;8.618;2023-05-12T09:54:11;93837.84;;;27.28;41.13
71194;BME280;58903;47.210;8.618;2023-05-12T09:56:51;93824.38;;;27.24;41.66
71194;BME280;58903;47.210;8.618;2023-05-12T09:59:23;93837.66;;;27.26;41.45
71194;BME280;58903;47.210;8.618;2023-05-12T10:02:01;93827.16;;;27.24;41.77
71194;BME280;58903;47.210;8.618;2023-05-12T10:04:42;93824.38;;;27.24;41.58
71194;BME280;58903;47.210;8.618;2023-05-12T10:07:12;93825.84;;;27.25;42.20
71194;BME280;58903;47.210;8.618;2023-05-12T10:09:58;93824.59;;;27.26;41.59
71194;BME280;58903;47.210;8.618;2023-05-12T10:12:33;93825.13;;;27.25;41.52
71194;BME280;58903;47.210;8.618;2023-05-12T10:15:03;93824.59;;;27.26;41.55
71194;BME280;58903;47.210;8.618;2023-05-12T10:17:30;93820.34;;;27.25;41.22
71194;BME280;58903;47.210;8.618;2023-05-12T10:20:02;93816.09;;;27.24;41.33
71194;BME280;58903;47.210;8.618;2023-05-12T10:22:43;93828.63;;;27.25;42.03
71194;BME280;58903;47.210;8.618;2023-05-12T10:25:18;93818.66;;;27.22;42.16
71194;BME280;58903;47.210;8.618;2023-05-12T10:27:54;93822.38;;;27.25;42.24
71194;BME280;58903;47.210;8.618;2023-05-12T10:30:23;93822.03;;;27.28;42.25
71194;BME280;58903;47.210;8.618;2023-05-12T10:32:51;93810.44;;;27.30;42.31
71194;BME280;58903;47.210;8.618;2023-05-12T10:35:30;93813.75;;;27.28;42.63
71194;BME280;58903;47.210;8.618;2023-05-12T10:38:05;93816.50;;;27.28;42.34
71194;BME280;58903;47.210;8.618;2023-05-12T10:40:34;93818.00;;;27.29;43.19
71194;BME280;58903;47.210;8.618;2023-05-12T10:43:20;93809.72;;;27.29;43.48
71194;BME280;58903;47.210;8.618;2023-05-12T10:45:46;93813.41;;;27.32;43.92
71194;BME280;58903;47.210;8.618;2023-05-12T10:55:41;93804.41;;;27.31;43.58
71194;BME280;58903;47.210;8.618;2023-05-12T10:58:11;93804.00;;;27.27;43.60
71194;BME280;58903;47.210;8.618;2023-05-12T11:00:45;93802.72;;;27.28;43.43
71194;BME280;58903;47.210;8.618;2023-05-12T11:03:23;93804.91;;;27.30;43.71
71194;BME280;58903;47.210;8.618;2023-05-12T11:06:00;93816.91;;;27.32;43.28
71194;BME280;58903;47.210;8.618;2023-05-12T11:08:49;93819.88;;;27.34;42.95
71194;BME280;58903;47.210;8.618;2023-05-12T11:11:42;93811.13;;;27.36;42.91
71194;BME280;58903;47.210;8.618;2023-05-12T11:14:09;93813.31;;;27.37;42.49
71194;BME280;58903;47.210;8.618;2023-05-12T11:16:52;93803.44;;;27.42;42.35
71194;BME280;58903;47.210;8.618;2023-05-12T11:19:53;93802.16;;;27.43;41.84
71194;BME280;58903;47.210;8.618;2023-05-12T11:22:49;93805.84;;;27.45;41.79
71194;BME280;58903;47.210;8.618;2023-05-12T11:25:36;93808.81;;;27.47;41.85
71194;BME280;58903;47.210;8.618;2023-05-12T11:28:24;93808.81;;;27.47;41.74
71194;BME280;58903;47.210;8.618;2023-05-12T11:31:17;93813.94;;;27.43;41.60
71194;BME280;58903;47.210;8.618;2023-05-12T11:33:45;93807.16;;;27.44;41.79
71194;BME280;58903;47.210;8.618;2023-05-12T11:36:12;93806.81;;;27.48;41.75
71194;BME280;58903;47.210;8.618;2023-05-12T11:38:50;93804.19;;;27.42;42.02
71194;BME280;58903;47.210;8.618;2023-05-12T11:41:27;93804.38;;;27.44;41.64
71194;BME280;58903;47.210;8.618;2023-05-12T11:47:12;93803.09;;;27.45;41.56
71194;BME280;58903;47.210;8.618;2023-05-12T11:53:10;93797.06;;;27.47;41.44
71194;BME280;58903;47.210;8.618;2023-05-12T11:55:46;93798.72;;;27.50;41.09
71194;BME280;58903;47.210;8.618;2023-05-12T11:58:18;93796.50;;;27.48;41.73
71194;BME280;58903;47.210;8.618;2023-05-12T12:00:46;93797.97;;;27.49;43.76
71194;BME280;58903;47.210;8.618;2023-05-12T12:03:15;93801.88;;;27.54;42.67
71194;BME280;58903;47.210;8.618;2023-05-12T12:05:44;93795.97;;;27.50;42.12
71194;BME280;58903;47.210;8.618;2023-05-12T12:08:27;93796.38;;;27.54;41.68
71194;BME280;58903;47.210;8.618;2023-05-12T12:11:30;93798.81;;;27.57;41.53
71194;BME280;58903;47.210;8.618;2023-05-12T12:17:14;93798.19;;;27.51;41.84
71194;BME280;58903;47.210;8.618;2023-05-12T12:19:42;93801.13;;;27.53;41.85
71194;BME280;58903;47.210;8.618;2023-05-12T12:22:19;93798.81;;;27.57;41.73
71194;BME280;58903;47.210;8.618;2023-05-12T12:28:22;93794.22;;;27.60;41.75
71194;BME280;58903;47.210;8.618;2023-05-12T12:31:00;93791.44;;;27.60;42.09
71194;BME280;58903;47.210;8.618;2023-05-12T12:33:34;93794.94;;;27.60;42.15
71194;BME280;58903;47.210;8.618;2023-05-12T12:36:01;93793.47;;;27.59;42.26
71194;BME280;58903;47.210;8.618;2023-05-12T12:38:56;93799.41;;;27.63;41.84
71194;BME280;58903;47.210;8.618;2023-05-12T12:41:53;93799.41;;;27.63;42.34
71194;BME280;58903;47.210;8.618;2023-05-12T12:44:35;93789.09;;;27.64;42.07
71194;BME280;58903;47.210;8.618;2023-05-12T12:47:04;93799.81;;;27.68;42.19
71194;BME280;58903;47.210;8.618;2023-05-12T12:49:58;93788.75;;;27.68;42.37
71194;BME280;58903;47.210;8.618;2023-05-12T12:52:35;93790.47;;;27.71;42.40
71194;BME280;58903;47.210;8.618;2023-05-12T12:55:19;93789.91;;;27.72;42.37
71194;BME280;58903;47.210;8.618;2023-05-12T12:58:15;93784.59;;;27.74;42.36
71194;BME280;58903;47.210;8.618;2023-05-12T13:00:45;93778.31;;;27.74;42.27
71194;BME280;58903;47.210;8.618;2023-05-12T13:03:20;93776.28;;;27.74;42.28
71194;BME280;58903;47.210;8.618;2023-05-12T13:06:26;93780.13;;;27.71;42.53
71194;BME280;58903;47.210;8.618;2023-05-12T13:08:55;93778.97;;;27.67;42.43
71194;BME280;58903;47.210;8.618;2023-05-12T13:11:31;93778.97;;;27.67;42.54
71194;BME280;58903;47.210;8.618;2023-05-12T13:14:14;93776.00;;;27.64;42.84
71194;BME280;58903;47.210;8.618;2023-05-12T13:16:49;93781.53;;;27.64;42.64
71194;BME280;58903;47.210;8.618;2023-05-12T13:19:41;93778.25;;;27.66;42.85
71194;BME280;58903;47.210;8.618;2023-05-12T13:22:35;93772.72;;;27.66;42.55
71194;BME280;58903;47.210;8.618;2023-05-12T13:25:03;93774.53;;;27.63;42.72
71194;BME280;58903;47.210;8.618;2023-05-12T13:27:36;93780.81;;;27.64;42.67
71194;BME280;58903;47.210;8.618;2023-05-12T13:30:21;93773.44;;;27.67;42.62
71194;BME280;58903;47.210;8.618;2023-05-12T13:33:06;93773.44;;;27.67;42.32
71194;BME280;58903;47.210;8.618;2023-05-12T13:35:53;93773.44;;;27.67;42.95
71194;BME280;58903;47.210;8.618;2023-05-12T13:38:29;93772.72;;;27.66;42.69
71194;BME280;58903;47.210;8.618;2023-05-12T13:41:08;93767.72;;;27.64;42.52
71194;BME280;58903;47.210;8.618;2023-05-12T13:43:49;93765.72;;;27.65;42.53
71194;BME280;58903;47.210;8.618;2023-05-12T13:46:16;93772.00;;;27.66;42.41
71194;BME280;58903;47.210;8.618;2023-05-12T13:48:44;93772.53;;;27.64;42.25
71194;BME280;58903;47.210;8.618;2023-05-12T13:51:33;93768.69;;;27.67;42.70
71194;BME280;58903;47.210;8.618;2023-05-12T13:53:59;93766.47;;;27.66;42.87
71194;BME280;58903;47.210;8.618;2023-05-12T13:56:26;93762.41;;;27.67;42.85
71194;BME280;58903;47.210;8.618;2023-05-12T13:58:55;93763.91;;;27.68;42.50
71194;BME280;58903;47.210;8.618;2023-05-12T14:01:28;93769.81;;;27.72;42.71
71194;BME280;58903;47.210;8.618;2023-05-12T14:04:18;93764.50;;;27.74;42.74
71194;BME280;58903;47.210;8.618;2023-05-12T14:06:58;93756.41;;;27.76;42.53
71194;BME280;58903;47.210;8.618;2023-05-12T14:09:52;93749.59;;;27.77;42.80
71194;BME280;58903;47.210;8.618;2023-05-12T14:12:34;93750.00;;;27.81;42.73
71194;BME280;58903;47.210;8.618;2023-05-12T14:15:11;93743.06;;;27.87;42.92
71194;BME280;58903;47.210;8.618;2023-05-12T14:17:37;93744.00;;;27.90;42.45
71194;BME280;58903;47.210;8.618;2023-05-12T14:20:12;93737.19;;;27.91;41.92
71194;BME280;58903;47.210;8.618;2023-05-12T14:22:58;93738.88;;;27.94;42.11
71194;BME280;58903;47.210;8.618;2023-05-12T14:25:24;93747.34;;;27.96;42.76
71194;BME280;58903;47.210;8.618;2023-05-12T14:27:50;93750.13;;;27.96;42.65
71194;BME280;58903;47.210;8.618;2023-05-12T14:30:19;93749.91;;;27.94;42.20
71194;BME280;58903;47.210;8.618;2023-05-12T14:32:46;93753.09;;;27.98;42.33
71194;BME280;58903;47.210;8.618;2023-05-12T14:35:12;93752.38;;;27.97;42.49
71194;BME280;58903;47.210;8.618;2023-05-12T14:37:39;93752.88;;;27.96;42.02
71194;BME280;58903;47.210;8.618;2023-05-12T14:40:05;93750.34;;;27.98;42.26
71194;BME280;58903;47.210;8.618;2023-05-12T14:42:32;93756.41;;;27.96;42.05
71194;BME280;58903;47.210;8.618;2023-05-12T14:45:00;93755.66;;;27.96;42.51
71194;BME280;58903;47.210;8.618;2023-05-12T14:47:27;93752.69;;;27.94;42.45
71194;BME280;58903;47.210;8.618;2023-05-12T14:49:53;93744.19;;;27.92;42.47
71194;BME280;58903;47.210;8.618;2023-05-12T14:52:19;93756.72;;;27.93;42.85
71194;BME280;58903;47.210;8.618;2023-05-12T14:54:45;93749.72;;;27.92;42.73
71194;BME280;58903;47.210;8.618;2023-05-12T14:57:11;93747.50;;;27.90;42.76
71194;BME280;58903;47.210;8.618;2023-05-12T14:59:38;93753.75;;;27.91;42.60